sensor_id;sensor_type;location;lat;lon;timestamp;P1;durP1;ratioP1;P2;durP2;ratioP2
43706;SDS011;61348;53.392;-6.248;2022-11-15T00:01:22;12.10;;;1.77;;
43706;SDS011;61348;53.392;-6.248;2022-11-15T00:03:52;7.28;;;1.40;;
43706;SDS011;61348;53.392;-6.248;2022-11-15T00:06:21;8.75;;;1.38;;
43706;SDS011;61348;53.392;-6.248;2022-11-15T00:08:48;10.15;;;2.45;;
43706;SDS011;61348;53.392;-6.248;2022-11-15T00:11:14;10.27;;;1.60;;
43706;SDS011;61348;53.392;-6.248;2022-11-15T00:13:41;12.68;;;2.25;;
43706;SDS011;61348;53.392;-6.248;2022-11-15T00:16:08;13.52;;;1.88;;
43706;SDS011;61348;53.392;-6.248;2022-11-15T00:18:37;13.52;;;1.95;;
43706;SDS011;61348;53.392;-6.248;2022-11-15T00:21:05;22.40;;;2.83;;
43706;SDS011;61348;53.392;-6.248;2022-11-15T00:23:35;11.05;;;2.20;;
43706;SDS011;61348;53.392;-6.248;2022-11-15T00:26:02;11.73;;;2.25;;
43706;SDS011;61348;53.392;-6.248;2022-11-15T00:28:30;11.73;;;2.35;;
43706;SDS011;61348;53.392;-6.248;2022-11-15T00:31:03;8.75;;;1.13;;
43706;SDS011;61348;53.392;-6.248;2022-11-15T00:33:31;8.13;;;0.90;;
43706;SDS011;61348;53.392;-6.248;2022-11-15T00:36:00;4.43;;;1.02;;
43706;SDS011;61348;53.392;-6.248;2022-11-15T00:38:32;7.85;;;1.70;;
43706;SDS011;61348;53.392;-6.248;2022-11-15T00:41:00;3.92;;;0.85;;
43706;SDS011;61348;53.392;-6.248;2022-11-15T00:43:34;9.85;;;1.27;;
43706;SDS011;61348;53.392;-6.248;2022-11-15T00:46:02;5.28;;;1.00;;
43706;SDS011;61348;53.392;-6.248;2022-11-15T00:48:29;11.40;;;1.50;;
43706;SDS011;61348;53.392;-6.248;2022-11-15T00:50:56;2.83;;;1.02;;
43706;SDS011;61348;53.392;-6.248;2022-11-15T00:53:23;9.30;;;2.63;;
43706;SDS011;61348;53.392;-6.248;2022-11-15T00:55:49;3.92;;;0.95;;
43706;SDS011;61348;53.392;-6.248;2022-11-15T00:58:16;5.65;;;1.02;;
43706;SDS011;61348;53.392;-6.248;2022-11-15T01:00:43;9.65;;;2.17;;
43706;SDS011;61348;53.392;-6.248;2022-11-15T01:03:10;5.63;;;1.10;;
43706;SDS011;61348;53.392;-6.248;2022-11-15T01:05:37;5.57;;;0.82;;
43706;SDS011;61348;53.392;-6.248;2022-11-15T01:08:04;6.85;;;1.10;;
43706;SDS011;61348;53.392;-6.248;2022-11-15T01:10:31;3.92;;;1.15;;
43706;SDS011;61348;53.392;-6.248;2022-11-15T01:12:58;8.05;;;1.00;;
43706;SDS011;61348;53.392;-6.248;2022-11-15T01:15:24;9.07;;;1.00;;
43706;SDS011;61348;53.392;-6.248;2022-11-15T01:17:51;6.68;;;1.00;;
43706;SDS011;61348;53.392;-6.248;2022-11-15T01:20:18;9.63;;;1.85;;
43706;SDS011;61348;53.392;-6.248;2022-11-15T01:22:45;5.93;;;0.77;;
43706;SDS011;61348;53.392;-6.248;2022-11-15T01:25:12;2.28;;;0.73;;
43706;SDS011;61348;53.392;-6.248;2022-11-15T01:27:39;5.25;;;0.90;;
43706;SDS011;61348;53.392;-6.248;2022-11-15T01:30:06;7.63;;;1.08;;
43706;SDS011;61348;53.392;-6.248;2022-11-15T01:32:34;6.60;;;0.70;;
43706;SDS011;61348;53.392;-6.248;2022-11-15T01:35:01;3.72;;;0.80;;
43706;SDS011;61348;53.392;-6.248;2022-11-15T01:37:27;6.80;;;1.02;;
43706;SDS011;61348;53.392;-6.248;2022-11-15T01:39:54;3.53;;;0.85;;
43706;SDS011;61348;53.392;-6.248;2022-11-15T01:42:21;4.15;;;0.93;;
43706;SDS011;61348;53.392;-6.248;2022-11-15T01:44:49;3.97;;;0.90;;
43706;SDS011;61348;53.392;-6.248;2022-11-15T01:49:55;5.63;;;0.93;;
43706;SDS011;61348;53.392;-6.248;2022-11-15T01:52:23;2.83;;;1.05;;
43706;SDS011;61348;53.392;-6.248;2022-11-15T01:54:56;6.80;;;0.88;;
43706;SDS011;61348;53.392;-6.248;2022-11-15T01:57:27;2.58;;;0.60;;
43706;SDS011;61348;53.392;-6.248;2022-11-15T01:59:54;5.03;;;0.98;;
43706;SDS011;61348;53.392;-6.248;2022-11-15T02:02:22;7.38;;;0.52;;
43706;SDS011;61348;53.392;-6.248;2022-11-15T02:04:49;4.00;;;1.05;;
43706;SDS011;61348;53.392;-6.248;2022-11-15T02:07:17;5.28;;;0.70;;
43706;SDS011;61348;53.392;-6.248;2022-11-15T02:09:46;2.08;;;0.45;;
43706;SDS011;61348;53.392;-6.248;2022-11-15T02:12:14;1.98;;;0.20;;
43706;SDS011;61348;53.392;-6.248;2022-11-15T02:14:46;3.13;;;0.40;;
43706;SDS011;61348;53.392;-6.248;2022-11-15T02:37:39;5.32;;;1.88;;
43706;SDS011;61348;53.392;-6.248;2022-11-15T02:42:56;7.50;;;1.02;;
43706;SDS011;61348;53.392;-6.248;2022-11-15T02:45:50;3.10;;;0.73;;
43706;SDS011;61348;53.392;-6.248;2022-11-15T02:48:22;5.78;;;0.80;;
43706;SDS011;61348;53.392;-6.248;2022-11-15T02:50:51;4.68;;;0.90;;
43706;SDS011;61348;53.392;-6.248;2022-11-15T02:53:20;3.33;;;0.75;;
43706;SDS011;61348;53.392;-6.248;2022-11-15T02:55:52;3.85;;;0.57;;
43706;SDS011;61348;53.392;-6.248;2022-11-15T03:12:07;8.23;;;1.08;;
43706;SDS011;61348;53.392;-6.248;2022-11-15T03:15:17;8.63;;;1.20;;
43706;SDS011;61348;53.392;-6.248;2022-11-15T03:18:00;8.75;;;1.65;;
43706;SDS011;61348;53.392;-6.248;2022-11-15T03:20:31;5.70;;;1.27;;
43706;SDS011;61348;53.392;-6.248;2022-11-15T03:23:08;10.00;;;1.67;;
43706;SDS011;61348;53.392;-6.248;2022-11-15T03:25:40;5.45;;;1.20;;
43706;SDS011;61348;53.392;-6.248;2022-11-15T03:28:12;11.35;;;1.55;;
43706;SDS011;61348;53.392;-6.248;2022-11-15T03:30:42;11.07;;;1.20;;
43706;SDS011;61348;53.392;-6.248;2022-11-15T03:33:12;10.10;;;2.83;;
43706;SDS011;61348;53.392;-6.248;2022-11-15T03:35:40;10.88;;;1.40;;
43706;SDS011;61348;53.392;-6.248;2022-11-15T03:41:05;8.43;;;1.20;;
43706;SDS011;61348;53.392;-6.248;2022-11-15T03:46:16;6.80;;;1.50;;
43706;SDS011;61348;53.392;-6.248;2022-11-15T03:48:53;14.95;;;1.65;;
43706;SDS011;61348;53.392;-6.248;2022-11-15T03:51:26;8.63;;;1.20;;
43706;SDS011;61348;53.392;-6.248;2022-11-15T03:53:54;4.88;;;1.50;;
43706;SDS011;61348;53.392;-6.248;2022-11-15T03:56:21;5.15;;;1.77;;
43706;SDS011;61348;53.392;-6.248;2022-11-15T03:58:48;13.63;;;1.60;;
43706;SDS011;61348;53.392;-6.248;2022-11-15T04:01:14;12.45;;;1.70;;
43706;SDS011;61348;53.392;-6.248;2022-11-15T04:03:41;8.02;;;1.42;;
43706;SDS011;61348;53.392;-6.248;2022-11-15T04:06:08;6.78;;;1.42;;
43706;SDS011;61348;53.392;-6.248;2022-11-15T04:08:35;10.07;;;1.83;;
43706;SDS011;61348;53.392;-6.248;2022-11-15T04:11:02;10.85;;;1.60;;
43706;SDS011;61348;53.392;-6.248;2022-11-15T04:13:28;11.65;;;2.13;;
43706;SDS011;61348;53.392;-6.248;2022-11-15T04:15:55;7.95;;;1.48;;
43706;SDS011;61348;53.392;-6.248;2022-11-15T04:18:22;8.77;;;1.67;;
43706;SDS011;61348;53.392;-6.248;2022-11-15T04:20:50;13.63;;;2.03;;
43706;SDS011;61348;53.392;-6.248;2022-11-15T04:23:35;9.50;;;1.73;;
43706;SDS011;61348;53.392;-6.248;2022-11-15T04:26:32;13.10;;;1.77;;
43706;SDS011;61348;53.392;-6.248;2022-11-15T04:28:59;13.27;;;3.03;;
43706;SDS011;61348;53.392;-6.248;2022-11-15T04:31:44;9.20;;;1.88;;
43706;SDS011;61348;53.392;-6.248;2022-11-15T04:34:11;16.55;;;2.80;;
43706;SDS011;61348;53.392;-6.248;2022-11-15T04:36:37;10.93;;;2.10;;
43706;SDS011;61348;53.392;-6.248;2022-11-15T04:39:23;7.90;;;1.77;;
43706;SDS011;61348;53.392;-6.248;2022-11-15T04:41:50;17.30;;;2.90;;
43706;SDS011;61348;53.392;-6.248;2022-11-15T04:44:17;6.95;;;2.15;;
43706;SDS011;61348;53.392;-6.248;2022-11-15T04:46:43;7.97;;;1.23;;
43706;SDS011;61348;53.392;-6.248;2022-11-15T04:49:10;10.65;;;2.00;;
43706;SDS011;61348;53.392;-6.248;2022-11-15T04:51:37;14.38;;;1.75;;
43706;SDS011;61348;53.392;-6.248;2022-11-15T04:54:03;6.13;;;1.45;;
43706;SDS011;61348;53.392;-6.248;2022-11-15T04:56:30;15.57;;;2.20;;
43706;SDS011;61348;53.392;-6.248;2022-11-15T04:58:57;12.40;;;1.80;;
43706;SDS011;61348;53.392;-6.248;2022-11-15T05:01:24;7.35;;;1.95;;
43706;SDS011;61348;53.392;-6.248;2022-11-15T05:03:50;11.88;;;2.67;;
43706;SDS011;61348;53.392;-6.248;2022-11-15T05:06:36;7.88;;;1.42;;
43706;SDS011;61348;53.392;-6.248;2022-11-15T05:09:02;11.00;;;1.85;;
43706;SDS011;61348;53.392;-6.248;2022-11-15T05:11:30;15.00;;;3.22;;
43706;SDS011;61348;53.392;-6.248;2022-11-15T05:13:57;10.50;;;1.67;;
43706;SDS011;61348;53.392;-6.248;2022-11-15T05:16:23;15.18;;;2.45;;
43706;SDS011;61348;53.392;-6.248;2022-11-15T05:18:51;9.20;;;1.88;;
43706;SDS011;61348;53.392;-6.248;2022-11-15T05:21:18;16.45;;;2.25;;
43706;SDS011;61348;53.392;-6.248;2022-11-15T05:23:45;16.83;;;2.67;;
43706;SDS011;61348;53.392;-6.248;2022-11-15T05:26:12;6.72;;;2.30;;
43706;SDS011;61348;53.392;-6.248;2022-11-15T05:28:40;11.93;;;1.60;;
43706;SDS011;61348;53.392;-6.248;2022-11-15T05:31:10;18.08;;;2.15;;
43706;SDS011;61348;53.392;-6.248;2022-11-15T05:33:39;15.05;;;2.10;;
43706;SDS011;61348;53.392;-6.248;2022-11-15T05:36:09;12.25;;;2.83;;
43706;SDS011;61348;53.392;-6.248;2022-11-15T05:38:38;11.30;;;2.08;;
43706;SDS011;61348;53.392;-6.248;2022-11-15T05:41:05;10.00;;;2.70;;
43706;SDS011;61348;53.392;-6.248;2022-11-15T05:43:32;12.80;;;2.10;;
43706;SDS011;61348;53.392;-6.248;2022-11-15T05:46:03;11.52;;;2.20;;
43706;SDS011;61348;53.392;-6.248;2022-11-15T05:48:31;12.82;;;1.88;;
43706;SDS011;61348;53.392;-6.248;2022-11-15T05:51:00;12.65;;;2.30;;
43706;SDS011;61348;53.392;-6.248;2022-11-15T05:53:29;10.23;;;2.20;;
43706;SDS011;61348;53.392;-6.248;2022-11-15T05:55:57;11.57;;;2.65;;
43706;SDS011;61348;53.392;-6.248;2022-11-15T05:58:24;8.20;;;1.83;;
43706;SDS011;61348;53.392;-6.248;2022-11-15T06:00:51;20.30;;;2.90;;
43706;SDS011;61348;53.392;-6.248;2022-11-15T06:03:17;20.05;;;3.03;;
43706;SDS011;61348;53.392;-6.248;2022-11-15T06:05:44;9.70;;;2.75;;
43706;SDS011;61348;53.392;-6.248;2022-11-15T06:08:11;18.77;;;2.13;;
43706;SDS011;61348;53.392;-6.248;2022-11-15T06:10:38;12.18;;;2.30;;
43706;SDS011;61348;53.392;-6.248;2022-11-15T06:13:04;12.40;;;2.53;;
43706;SDS011;61348;53.392;-6.248;2022-11-15T06:15:33;19.67;;;2.20;;
43706;SDS011;61348;53.392;-6.248;2022-11-15T06:18:02;9.45;;;2.20;;
43706;SDS011;61348;53.392;-6.248;2022-11-15T06:20:29;13.18;;;2.58;;
43706;SDS011;61348;53.392;-6.248;2022-11-15T06:23:01;16.73;;;1.95;;
43706;SDS011;61348;53.392;-6.248;2022-11-15T06:25:30;8.30;;;1.90;;
43706;SDS011;61348;53.392;-6.248;2022-11-15T06:27:57;12.25;;;2.25;;
43706;SDS011;61348;53.392;-6.248;2022-11-15T06:30:25;13.80;;;2.90;;
43706;SDS011;61348;53.392;-6.248;2022-11-15T06:33:02;10.85;;;2.97;;
43706;SDS011;61348;53.392;-6.248;2022-11-15T06:35:32;17.40;;;2.78;;
43706;SDS011;61348;53.392;-6.248;2022-11-15T06:38:07;18.45;;;2.40;;
43706;SDS011;61348;53.392;-6.248;2022-11-15T06:40:38;14.13;;;3.28;;
43706;SDS011;61348;53.392;-6.248;2022-11-15T06:43:06;8.10;;;1.92;;
43706;SDS011;61348;53.392;-6.248;2022-11-15T06:45:33;15.55;;;2.47;;
43706;SDS011;61348;53.392;-6.248;2022-11-15T06:47:59;14.55;;;2.00;;
43706;SDS011;61348;53.392;-6.248;2022-11-15T06:50:26;17.50;;;3.47;;
43706;SDS011;61348;53.392;-6.248;2022-11-15T06:52:53;9.48;;;2.40;;
43706;SDS011;61348;53.392;-6.248;2022-11-15T06:55:20;14.23;;;2.83;;
43706;SDS011;61348;53.392;-6.248;2022-11-15T06:57:48;8.15;;;1.90;;
43706;SDS011;61348;53.392;-6.248;2022-11-15T07:00:19;13.20;;;2.47;;
43706;SDS011;61348;53.392;-6.248;2022-11-15T07:02:47;20.90;;;3.45;;
43706;SDS011;61348;53.392;-6.248;2022-11-15T07:05:15;13.52;;;2.80;;
43706;SDS011;61348;53.392;-6.248;2022-11-15T07:07:42;21.58;;;3.20;;
43706;SDS011;61348;53.392;-6.248;2022-11-15T07:10:09;13.35;;;3.10;;
43706;SDS011;61348;53.392;-6.248;2022-11-15T07:12:36;18.45;;;4.82;;
43706;SDS011;61348;53.392;-6.248;2022-11-15T07:15:02;18.17;;;5.82;;
43706;SDS011;61348;53.392;-6.248;2022-11-15T07:17:30;12.13;;;2.15;;
43706;SDS011;61348;53.392;-6.248;2022-11-15T07:19:56;13.70;;;2.92;;
43706;SDS011;61348;53.392;-6.248;2022-11-15T07:22:24;14.82;;;2.65;;
43706;SDS011;61348;53.392;-6.248;2022-11-15T07:24:52;24.20;;;3.10;;
43706;SDS011;61348;53.392;-6.248;2022-11-15T07:27:19;16.98;;;2.78;;
43706;SDS011;61348;53.392;-6.248;2022-11-15T07:29:46;17.77;;;4.07;;
43706;SDS011;61348;53.392;-6.248;2022-11-15T07:32:12;12.65;;;1.92;;
43706;SDS011;61348;53.392;-6.248;2022-11-15T07:34:39;13.90;;;2.28;;
43706;SDS011;61348;53.392;-6.248;2022-11-15T07:37:06;16.83;;;2.63;;
43706;SDS011;61348;53.392;-6.248;2022-11-15T07:39:33;12.40;;;2.25;;
43706;SDS011;61348;53.392;-6.248;2022-11-15T07:41:59;20.38;;;2.72;;
43706;SDS011;61348;53.392;-6.248;2022-11-15T07:44:45;14.52;;;2.05;;
43706;SDS011;61348;53.392;-6.248;2022-11-15T07:47:12;8.27;;;1.77;;
43706;SDS011;61348;53.392;-6.248;2022-11-15T07:49:38;17.25;;;3.03;;
43706;SDS011;61348;53.392;-6.248;2022-11-15T07:52:05;15.20;;;3.03;;
43706;SDS011;61348;53.392;-6.248;2022-11-15T07:54:32;18.05;;;2.72;;
43706;SDS011;61348;53.392;-6.248;2022-11-15T07:56:59;8.77;;;2.33;;
43706;SDS011;61348;53.392;-6.248;2022-11-15T07:59:32;18.58;;;1.95;;
43706;SDS011;61348;53.392;-6.248;2022-11-15T08:01:59;16.25;;;2.28;;
43706;SDS011;61348;53.392;-6.248;2022-11-15T08:04:26;8.48;;;2.63;;
43706;SDS011;61348;53.392;-6.248;2022-11-15T08:06:53;15.65;;;2.78;;
43706;SDS011;61348;53.392;-6.248;2022-11-15T08:09:20;10.95;;;3.28;;
43706;SDS011;61348;53.392;-6.248;2022-11-15T08:11:47;14.85;;;2.78;;
43706;SDS011;61348;53.392;-6.248;2022-11-15T08:14:13;15.90;;;2.45;;
43706;SDS011;61348;53.392;-6.248;2022-11-15T08:16:40;19.67;;;4.05;;
43706;SDS011;61348;53.392;-6.248;2022-11-15T08:19:07;14.63;;;2.75;;
43706;SDS011;61348;53.392;-6.248;2022-11-15T08:21:33;8.25;;;2.08;;
43706;SDS011;61348;53.392;-6.248;2022-11-15T08:24:01;12.13;;;2.05;;
43706;SDS011;61348;53.392;-6.248;2022-11-15T08:26:28;17.88;;;2.63;;
43706;SDS011;61348;53.392;-6.248;2022-11-15T08:28:56;14.35;;;2.35;;
43706;SDS011;61348;53.392;-6.248;2022-11-15T08:31:23;14.10;;;3.08;;
43706;SDS011;61348;53.392;-6.248;2022-11-15T08:33:49;27.05;;;3.85;;
43706;SDS011;61348;53.392;-6.248;2022-11-15T08:36:16;11.38;;;4.80;;
43706;SDS011;61348;53.392;-6.248;2022-11-15T08:38:44;15.25;;;2.72;;
43706;SDS011;61348;53.392;-6.248;2022-11-15T08:41:18;15.02;;;4.47;;
43706;SDS011;61348;53.392;-6.248;2022-11-15T08:43:57;9.43;;;2.15;;
43706;SDS011;61348;53.392;-6.248;2022-11-15T08:46:24;16.77;;;2.22;;
43706;SDS011;61348;53.392;-6.248;2022-11-15T08:48:51;11.35;;;2.67;;
43706;SDS011;61348;53.392;-6.248;2022-11-15T08:51:19;14.38;;;2.45;;
43706;SDS011;61348;53.392;-6.248;2022-11-15T08:53:47;14.07;;;2.90;;
43706;SDS011;61348;53.392;-6.248;2022-11-15T08:56:15;15.80;;;2.20;;
43706;SDS011;61348;53.392;-6.248;2022-11-15T08:58:42;13.93;;;1.85;;
43706;SDS011;61348;53.392;-6.248;2022-11-15T09:01:17;11.00;;;2.20;;
43706;SDS011;61348;53.392;-6.248;2022-11-15T09:03:46;10.73;;;2.72;;
43706;SDS011;61348;53.392;-6.248;2022-11-15T09:06:13;19.92;;;2.45;;
43706;SDS011;61348;53.392;-6.248;2022-11-15T09:08:40;21.08;;;3.05;;
43706;SDS011;61348;53.392;-6.248;2022-11-15T09:11:14;12.65;;;2.33;;
43706;SDS011;61348;53.392;-6.248;2022-11-15T09:13:42;15.43;;;2.50;;
43706;SDS011;61348;53.392;-6.248;2022-11-15T09:16:09;9.68;;;2.17;;
43706;SDS011;61348;53.392;-6.248;2022-11-15T09:18:38;11.48;;;3.38;;
43706;SDS011;61348;53.392;-6.248;2022-11-15T09:21:05;12.18;;;2.78;;
43706;SDS011;61348;53.392;-6.248;2022-11-15T09:23:31;20.35;;;4.55;;
43706;SDS011;61348;53.392;-6.248;2022-11-15T09:26:00;12.80;;;2.72;;
43706;SDS011;61348;53.392;-6.248;2022-11-15T09:28:29;22.63;;;3.75;;
43706;SDS011;61348;53.392;-6.248;2022-11-15T09:30:57;13.18;;;2.63;;
43706;SDS011;61348;53.392;-6.248;2022-11-15T09:33:25;16.05;;;2.97;;
43706;SDS011;61348;53.392;-6.248;2022-11-15T09:35:53;17.55;;;3.58;;
43706;SDS011;61348;53.392;-6.248;2022-11-15T09:38:20;13.20;;;2.53;;
43706;SDS011;61348;53.392;-6.248;2022-11-15T09:40:49;20.27;;;2.55;;
43706;SDS011;61348;53.392;-6.248;2022-11-15T09:46:24;16.90;;;3.78;;
43706;SDS011;61348;53.392;-6.248;2022-11-15T09:48:57;17.27;;;3.60;;
43706;SDS011;61348;53.392;-6.248;2022-11-15T09:54:23;14.07;;;3.70;;
43706;SDS011;61348;53.392;-6.248;2022-11-15T09:57:13;12.70;;;2.47;;
43706;SDS011;61348;53.392;-6.248;2022-11-15T10:00:00;11.25;;;2.20;;
43706;SDS011;61348;53.392;-6.248;2022-11-15T10:05:30;15.77;;;2.97;;
43706;SDS011;61348;53.392;-6.248;2022-11-15T10:10:40;16.67;;;2.50;;
43706;SDS011;61348;53.392;-6.248;2022-11-15T10:13:16;15.45;;;2.58;;
43706;SDS011;61348;53.392;-6.248;2022-11-15T10:15:49;11.45;;;2.55;;
43706;SDS011;61348;53.392;-6.248;2022-11-15T10:18:18;24.95;;;5.95;;
43706;SDS011;61348;53.392;-6.248;2022-11-15T10:24:07;10.93;;;2.53;;
43706;SDS011;61348;53.392;-6.248;2022-11-15T10:26:45;10.90;;;2.55;;
43706;SDS011;61348;53.392;-6.248;2022-11-15T10:29:23;17.55;;;2.60;;
43706;SDS011;61348;53.392;-6.248;2022-11-15T10:31:52;13.75;;;2.40;;
43706;SDS011;61348;53.392;-6.248;2022-11-15T10:34:20;14.63;;;2.28;;
43706;SDS011;61348;53.392;-6.248;2022-11-15T10:36:55;12.68;;;2.45;;
43706;SDS011;61348;53.392;-6.248;2022-11-15T10:39:23;8.00;;;1.70;;
43706;SDS011;61348;53.392;-6.248;2022-11-15T10:41:51;11.13;;;2.03;;
43706;SDS011;61348;53.392;-6.248;2022-11-15T10:49:23;5.43;;;1.75;;
43706;SDS011;61348;53.392;-6.248;2022-11-15T10:51:53;13.50;;;2.88;;
43706;SDS011;61348;53.392;-6.248;2022-11-15T10:54:43;13.20;;;4.32;;
43706;SDS011;61348;53.392;-6.248;2022-11-15T10:57:19;13.50;;;2.33;;
43706;SDS011;61348;53.392;-6.248;2022-11-15T10:59:55;13.50;;;2.92;;
43706;SDS011;61348;53.392;-6.248;2022-11-15T11:05:03;12.13;;;2.45;;
43706;SDS011;61348;53.392;-6.248;2022-11-15T11:08:24;12.07;;;2.17;;
43706;SDS011;61348;53.392;-6.248;2022-11-15T11:11:01;9.48;;;1.85;;
43706;SDS011;61348;53.392;-6.248;2022-11-15T11:19:02;13.40;;;1.90;;
43706;SDS011;61348;53.392;-6.248;2022-11-15T11:33:23;6.68;;;2.10;;
43706;SDS011;61348;53.392;-6.248;2022-11-15T11:38:46;13.25;;;1.85;;
43706;SDS011;61348;53.392;-6.248;2022-11-15T11:44:24;8.00;;;2.00;;
43706;SDS011;61348;53.392;-6.248;2022-11-15T11:49:48;6.93;;;1.50;;
43706;SDS011;61348;53.392;-6.248;2022-11-15T11:55:39;12.55;;;1.50;;
43706;SDS011;61348;53.392;-6.248;2022-11-15T12:01:24;13.40;;;2.38;;
43706;SDS011;61348;53.392;-6.248;2022-11-15T12:04:05;6.93;;;1.92;;
43706;SDS011;61348;53.392;-6.248;2022-11-15T12:14:55;9.02;;;1.42;;
43706;SDS011;61348;53.392;-6.248;2022-11-15T12:17:29;10.20;;;1.63;;
43706;SDS011;61348;53.392;-6.248;2022-11-15T12:19:59;19.85;;;3.17;;
43706;SDS011;61348;53.392;-6.248;2022-11-15T12:22:49;9.82;;;1.67;;
43706;SDS011;61348;53.392;-6.248;2022-11-15T12:27:59;8.98;;;1.45;;
43706;SDS011;61348;53.392;-6.248;2022-11-15T12:31:17;16.15;;;2.00;;
43706;SDS011;61348;53.392;-6.248;2022-11-15T12:33:42;7.78;;;1.65;;
43706;SDS011;61348;53.392;-6.248;2022-11-15T12:39:02;8.95;;;1.65;;
43706;SDS011;61348;53.392;-6.248;2022-11-15T13:02:24;8.43;;;1.92;;
43706;SDS011;61348;53.392;-6.248;2022-11-15T13:05:46;6.65;;;1.65;;
43706;SDS011;61348;53.392;-6.248;2022-11-15T13:25:46;5.30;;;1.30;;
43706;SDS011;61348;53.392;-6.248;2022-11-15T13:30:57;4.60;;;1.40;;
43706;SDS011;61348;53.392;-6.248;2022-11-15T13:36:23;1.67;;;1.10;;
43706;SDS011;61348;53.392;-6.248;2022-11-15T13:38:58;5.25;;;1.60;;
43706;SDS011;61348;53.392;-6.248;2022-11-15T13:41:33;8.65;;;2.35;;
43706;SDS011;61348;53.392;-6.248;2022-11-15T13:44:02;9.55;;;3.20;;
43706;SDS011;61348;53.392;-6.248;2022-11-15T13:46:33;18.20;;;2.63;;
43706;SDS011;61348;53.392;-6.248;2022-11-15T13:49:02;10.38;;;1.83;;
43706;SDS011;61348;53.392;-6.248;2022-11-15T13:51:33;5.68;;;1.60;;
43706;SDS011;61348;53.392;-6.248;2022-11-15T13:56:57;8.45;;;1.15;;
43706;SDS011;61348;53.392;-6.248;2022-11-15T13:59:28;7.03;;;1.92;;
43706;SDS011;61348;53.392;-6.248;2022-11-15T14:01:59;5.50;;;1.73;;
43706;SDS011;61348;53.392;-6.248;2022-11-15T14:04:29;8.98;;;2.17;;
43706;SDS011;61348;53.392;-6.248;2022-11-15T14:07:00;4.70;;;1.70;;
43706;SDS011;61348;53.392;-6.248;2022-11-15T14:09:38;5.63;;;2.17;;
43706;SDS011;61348;53.392;-6.248;2022-11-15T14:15:44;13.02;;;1.65;;
43706;SDS011;61348;53.392;-6.248;2022-11-15T14:17:52;6.18;;;1.48;;
43706;SDS011;61348;53.392;-6.248;2022-11-15T14:20:24;9.55;;;1.40;;
43706;SDS011;61348;53.392;-6.248;2022-11-15T14:22:55;6.28;;;2.00;;
43706;SDS011;61348;53.392;-6.248;2022-11-15T14:25:33;8.55;;;2.10;;
43706;SDS011;61348;53.392;-6.248;2022-11-15T14:28:15;3.50;;;1.25;;
43706;SDS011;61348;53.392;-6.248;2022-11-15T14:30:57;5.03;;;1.38;;
43706;SDS011;61348;53.392;-6.248;2022-11-15T14:38:29;5.32;;;1.75;;
43706;SDS011;61348;53.392;-6.248;2022-11-15T14:40:57;10.48;;;1.95;;
43706;SDS011;61348;53.392;-6.248;2022-11-15T14:43:24;8.40;;;1.35;;
43706;SDS011;61348;53.392;-6.248;2022-11-15T14:45:51;6.88;;;1.05;;
43706;SDS011;61348;53.392;-6.248;2022-11-15T14:48:19;3.58;;;1.05;;
43706;SDS011;61348;53.392;-6.248;2022-11-15T14:50:46;8.90;;;2.10;;
43706;SDS011;61348;53.392;-6.248;2022-11-15T14:53:16;4.88;;;1.27;;
43706;SDS011;61348;53.392;-6.248;2022-11-15T14:55:45;14.40;;;3.22;;
43706;SDS011;61348;53.392;-6.248;2022-11-15T14:58:12;9.30;;;2.67;;
43706;SDS011;61348;53.392;-6.248;2022-11-15T15:00:39;19.05;;;2.30;;
43706;SDS011;61348;53.392;-6.248;2022-11-15T15:03:07;8.90;;;1.90;;
43706;SDS011;61348;53.392;-6.248;2022-11-15T15:05:36;4.95;;;2.58;;
43706;SDS011;61348;53.392;-6.248;2022-11-15T15:08:05;8.73;;;2.05;;
43706;SDS011;61348;53.392;-6.248;2022-11-15T15:10:34;6.43;;;1.92;;
43706;SDS011;61348;53.392;-6.248;2022-11-15T15:13:27;3.85;;;1.65;;
43706;SDS011;61348;53.392;-6.248;2022-11-15T15:15:55;3.25;;;1.55;;
43706;SDS011;61348;53.392;-6.248;2022-11-15T15:18:22;6.20;;;1.50;;
43706;SDS011;61348;53.392;-6.248;2022-11-15T15:20:53;10.55;;;1.48;;
43706;SDS011;61348;53.392;-6.248;2022-11-15T15:23:26;6.97;;;2.03;;
43706;SDS011;61348;53.392;-6.248;2022-11-15T15:25:55;4.80;;;1.52;;
43706;SDS011;61348;53.392;-6.248;2022-11-15T15:28:22;6.57;;;1.65;;
43706;SDS011;61348;53.392;-6.248;2022-11-15T15:30:49;9.27;;;1.30;;
43706;SDS011;61348;53.392;-6.248;2022-11-15T15:33:16;9.20;;;1.90;;
43706;SDS011;61348;53.392;-6.248;2022-11-15T15:35:42;8.10;;;2.17;;
43706;SDS011;61348;53.392;-6.248;2022-11-15T15:38:12;9.73;;;2.58;;
43706;SDS011;61348;53.392;-6.248;2022-11-15T15:40:39;9.25;;;2.80;;
43706;SDS011;61348;53.392;-6.248;2022-11-15T15:43:06;7.35;;;2.65;;
43706;SDS011;61348;53.392;-6.248;2022-11-15T15:45:38;12.73;;;2.65;;
43706;SDS011;61348;53.392;-6.248;2022-11-15T15:48:16;10.82;;;3.70;;
43706;SDS011;61348;53.392;-6.248;2022-11-15T15:50:44;15.02;;;4.32;;
43706;SDS011;61348;53.392;-6.248;2022-11-15T15:53:12;13.98;;;4.20;;
43706;SDS011;61348;53.392;-6.248;2022-11-15T15:55:39;16.77;;;3.28;;
43706;SDS011;61348;53.392;-6.248;2022-11-15T15:58:06;9.27;;;2.55;;
43706;SDS011;61348;53.392;-6.248;2022-11-15T16:00:34;6.72;;;2.13;;
43706;SDS011;61348;53.392;-6.248;2022-11-15T16:03:02;8.77;;;2.90;;
43706;SDS011;61348;53.392;-6.248;2022-11-15T16:05:30;20.30;;;5.70;;
43706;SDS011;61348;53.392;-6.248;2022-11-15T16:07:57;13.38;;;5.10;;
43706;SDS011;61348;53.392;-6.248;2022-11-15T16:10:25;17.73;;;4.85;;
43706;SDS011;61348;53.392;-6.248;2022-11-15T16:12:54;14.65;;;8.07;;
43706;SDS011;61348;53.392;-6.248;2022-11-15T16:15:23;15.70;;;5.53;;
43706;SDS011;61348;53.392;-6.248;2022-11-15T16:17:52;18.50;;;5.68;;
43706;SDS011;61348;53.392;-6.248;2022-11-15T16:20:40;19.75;;;6.35;;
43706;SDS011;61348;53.392;-6.248;2022-11-15T16:23:14;15.20;;;6.50;;
43706;SDS011;61348;53.392;-6.248;2022-11-15T16:28:16;13.88;;;6.47;;
43706;SDS011;61348;53.392;-6.248;2022-11-15T16:30:44;16.50;;;6.30;;
43706;SDS011;61348;53.392;-6.248;2022-11-15T16:33:11;15.93;;;6.68;;
43706;SDS011;61348;53.392;-6.248;2022-11-15T16:35:38;24.10;;;6.75;;
43706;SDS011;61348;53.392;-6.248;2022-11-15T16:38:05;22.10;;;8.90;;
43706;SDS011;61348;53.392;-6.248;2022-11-15T16:40:32;15.90;;;6.32;;
43706;SDS011;61348;53.392;-6.248;2022-11-15T16:43:01;12.40;;;5.43;;
43706;SDS011;61348;53.392;-6.248;2022-11-15T16:45:29;13.70;;;5.35;;
43706;SDS011;61348;53.392;-6.248;2022-11-15T16:47:57;10.38;;;5.07;;
43706;SDS011;61348;53.392;-6.248;2022-11-15T16:50:25;17.70;;;6.15;;
43706;SDS011;61348;53.392;-6.248;2022-11-15T16:52:54;12.35;;;4.70;;
43706;SDS011;61348;53.392;-6.248;2022-11-15T16:55:24;16.95;;;5.35;;
43706;SDS011;61348;53.392;-6.248;2022-11-15T16:57:54;18.80;;;4.97;;
43706;SDS011;61348;53.392;-6.248;2022-11-15T17:00:23;10.30;;;5.28;;
43706;SDS011;61348;53.392;-6.248;2022-11-15T17:02:51;23.45;;;4.93;;
43706;SDS011;61348;53.392;-6.248;2022-11-15T17:05:20;15.32;;;8.80;;
43706;SDS011;61348;53.392;-6.248;2022-11-15T17:07:48;29.60;;;12.90;;
43706;SDS011;61348;53.392;-6.248;2022-11-15T17:10:23;127.28;;;54.33;;
43706;SDS011;61348;53.392;-6.248;2022-11-15T17:12:51;135.30;;;55.58;;
43706;SDS011;61348;53.392;-6.248;2022-11-15T17:15:20;100.28;;;41.08;;
43706;SDS011;61348;53.392;-6.248;2022-11-15T17:17:51;181.20;;;78.78;;
43706;SDS011;61348;53.392;-6.248;2022-11-15T17:20:20;118.78;;;53.60;;
43706;SDS011;61348;53.392;-6.248;2022-11-15T17:22:48;106.72;;;54.88;;
43706;SDS011;61348;53.392;-6.248;2022-11-15T17:25:15;83.28;;;38.42;;
43706;SDS011;61348;53.392;-6.248;2022-11-15T17:27:42;57.15;;;25.27;;
43706;SDS011;61348;53.392;-6.248;2022-11-15T17:30:09;43.55;;;17.80;;
43706;SDS011;61348;53.392;-6.248;2022-11-15T17:32:38;28.70;;;11.45;;
43706;SDS011;61348;53.392;-6.248;2022-11-15T17:35:05;21.17;;;8.55;;